Latest Coastal Weather Observations for Creal Reef

IDQ60701

Issued at 8:21 am EST Friday 29 May 2015 (issued every 10 minutes, with the page automatically refreshed every 10 minutes)

About coastal observations | Map of coastal stations | Coastal observations for QLD | Marine services | Other Formats
Station Details ID: 200736 Name: CREAL REEF Lat: -20.53 Lon: 150.38 Height: 1.7 m
Data from the previous 72 hours. | See also: Recent months for locations in Queensland
Date/Time
EST
Temp

°C
Wind Pressure Rain
since 9am
mm
Weather Cloud Vis
km
Sea
Height
m
Swell
Dir
 
Speed
knots
Gust
knots
hPa Trend Height
m
Period
s
Dir
29/08:20am 24.2 SE 16 18 1020.8 - - - - - - - - -
29/08:00am 24.1 ESE 14 17 1020.8 - - - - - - - - -
29/07:30am 23.7 SE 15 17 1020.5 - - - - - - - - -
29/07:20am 23.6 SE 15 - 1020.4 - - - - - - - - -
29/07:00am 22.8 SE 9 11 1020.4 - - - - - - - - -
29/06:42am 21.3 ESE 15 25 1020.6 - - - - - - - - -
29/06:30am 21.7 E 24 27 1020.6 - - - - - - - - -
29/06:20am 22.4 E 21 - 1020.3 - - - - - - - - -
29/06:06am 23.0 E 21 24 1020.1 - - - - - - - - -
29/06:00am 23.9 SE 17 19 1019.9 - - - - - - - - -
29/05:30am 23.9 SE 17 19 1019.8 - - - - - - - - -
29/05:20am 24.0 SE 17 - 1019.6 - - - - - - - - -
29/05:00am 24.0 SE 17 19 1019.5 - - - - - - - - -
29/04:30am 23.8 SE 17 19 1019.3 - - - - - - - - -
29/04:20am 23.9 SE 18 - 1019.2 - - - - - - - - -
29/04:00am 24.0 SE 17 19 1019.2 - - - - - - - - -
29/03:30am 23.9 SE 18 21 1019.3 - - - - - - - - -
29/03:20am 23.8 ESE 18 - 1019.2 - - - - - - - - -
29/03:00am 23.8 ESE 18 21 1019.3 - - - - - - - - -
29/02:30am 24.0 ESE 17 20 1019.5 - - - - - - - - -
29/02:20am 23.9 ESE 17 - 1019.3 - - - - - - - - -
29/02:00am 23.9 ESE 17 19 1019.5 - - - - - - - - -
29/01:30am 23.9 ESE 18 20 1020.0 - - - - - - - - -
29/01:20am 24.0 ESE 17 - 1019.9 - - - - - - - - -
29/01:00am 23.9 ESE 16 18 1020.0 - - - - - - - - -
29/12:30am 23.7 ESE 15 18 1020.4 - - - - - - - - -
29/12:20am 23.5 E 13 - 1020.3 - - - - - - - - -
29/12:00am 23.8 SE 16 18 1020.6 - - - - - - - - -
 
Date/Time
EST
Temp

°C
Wind Pressure Rain
since 9am
mm
Weather Cloud Vis
km
Sea
Height
m
Swell
Dir
 
Speed
knots
Gust
knots
hPa Trend Height
m
Period
s
Dir
28/11:30pm 23.9 SE 16 18 1020.6 - - - - - - - - -
28/11:20pm 24.1 ESE 17 - 1020.5 - - - - - - - - -
28/11:00pm 24.0 ESE 16 19 1020.7 - - - - - - - - -
28/10:30pm 24.0 ESE 17 20 1020.7 - - - - - - - - -
28/10:20pm 23.9 SE 18 - 1020.8 - - - - - - - - -
28/10:00pm 23.8 ESE 18 22 1020.6 - - - - - - - - -
28/09:30pm 24.0 SE 18 21 1020.6 - - - - - - - - -
28/09:20pm 23.9 SE 18 - 1020.5 - - - - - - - - -
28/09:00pm 23.9 ESE 18 21 1020.5 - - - - - - - - -
28/08:30pm 23.9 SE 18 21 1020.5 - - - - - - - - -
28/08:20pm 23.8 ESE 18 - 1020.3 - - - - - - - - -
28/08:00pm 23.8 ESE 19 22 1020.3 - - - - - - - - -
28/07:30pm 24.0 SE 17 21 1020.0 - - - - - - - - -
28/07:20pm 24.0 SE 19 - 1019.8 - - - - - - - - -
28/07:00pm 24.1 SE 18 21 1019.8 - - - - - - - - -
28/06:30pm 24.0 SE 19 21 1019.5 - - - - - - - - -
28/06:20pm 23.9 SE 19 - 1019.3 - - - - - - - - -
28/06:00pm 24.1 SE 19 21 1019.2 - - - - - - - - -
28/05:30pm 24.0 SE 18 20 1018.9 - - - - - - - - -
28/05:20pm 24.0 SE 18 - 1018.8 - - - - - - - - -
28/05:00pm 24.1 SE 18 20 1018.9 - - - - - - - - -
28/04:30pm 24.3 SE 18 21 1018.8 - - - - - - - - -
28/04:20pm 24.3 SE 18 - 1018.6 - - - - - - - - -
28/04:00pm 24.3 SE 18 21 1018.6 - - - - - - - - -
28/03:30pm 24.1 SE 18 21 1018.4 - - - - - - - - -
28/03:20pm 24.1 SE 17 - 1018.3 - - - - - - - - -
28/03:00pm 24.1 ESE 18 21 1018.4 - - - - - - - - -
28/02:30pm 24.1 SE 18 21 1018.3 - - - - - - - - -
28/02:20pm 24.1 SE 18 - 1018.1 - - - - - - - - -
28/02:00pm 24.2 ESE 18 20 1018.3 - - - - - - - - -
28/01:30pm 24.2 SE 18 21 1018.4 - - - - - - - - -
28/01:20pm 24.3 ESE 18 - 1018.3 - - - - - - - - -
28/01:00pm 24.2 ESE 18 20 1018.6 - - - - - - - - -
28/12:30pm 24.2 ESE 18 21 1018.7 - - - - - - - - -
28/12:20pm 24.3 ESE 17 - 1018.9 - - - - - - - - -
28/12:00pm 24.2 ESE 17 20 1019.4 - - - - - - - - -
28/11:30am 24.2 ESE 17 21 1019.8 - - - - - - - - -
28/11:20am 24.0 ESE 16 - 1019.7 - - - - - - - - -
28/11:00am 23.9 ESE 16 19 1019.8 - - - - - - - - -
28/10:30am 24.1 ESE 17 19 1020.2 - - - - - - - - -
28/10:20am 24.1 ESE 18 - 1020.1 - - - - - - - - -
28/10:00am 24.1 ESE 17 19 1020.4 - - - - - - - - -
28/09:30am 24.0 E 20 23 1020.7 - - - - - - - - -
28/09:20am 23.8 E 19 - 1020.7 - - - - - - - - -
28/09:00am 24.1 ESE 17 19 1020.8 - - - - - - - - -
28/08:30am 24.1 ESE 18 21 1020.5 - - - - - - - - -
28/08:20am 23.9 ESE 17 - 1020.3 - - - - - - - - -
28/08:00am 23.8 ESE 18 20 1020.2 - - - - - - - - -
28/07:30am 22.9 ESE 20 23 1019.9 - - - - - - - - -
28/07:20am 23.0 E 21 - 1019.6 - - - - - - - - -
28/07:00am 23.6 ESE 19 22 1019.6 - - - - - - - - -
28/06:30am 23.7 ESE 19 22 1019.2 - - - - - - - - -
28/06:20am 23.6 E 19 - 1018.9 - - - - - - - - -
28/06:00am 22.9 E 20 24 1018.7 - - - - - - - - -
28/05:30am 23.4 E 19 22 1018.6 - - - - - - - - -
28/05:20am 24.0 ESE 19 - 1018.3 - - - - - - - - -
28/05:00am 23.9 ESE 18 21 1018.2 - - - - - - - - -
28/04:30am 23.8 ESE 17 21 1018.2 - - - - - - - - -
28/04:20am 23.7 ESE 19 - 1018.1 - - - - - - - - -
28/04:00am 22.7 ESE 20 25 1018.4 - - - - - - - - -
28/03:30am 23.9 ESE 18 22 1018.3 - - - - - - - - -
28/03:20am 23.9 ESE 19 - 1018.2 - - - - - - - - -
28/03:00am 23.9 ESE 19 23 1018.4 - - - - - - - - -
28/02:30am 23.9 ESE 17 21 1018.2 - - - - - - - - -
28/02:20am 23.9 ESE 17 - 1018.1 - - - - - - - - -
28/02:00am 23.9 ESE 18 19 1018.3 - - - - - - - - -
28/01:30am 23.7 ESE 17 20 1018.2 - - - - - - - - -
28/01:20am 23.8 ESE 16 - 1018.2 - - - - - - - - -
28/01:00am 23.5 ESE 19 23 1018.6 - - - - - - - - -
28/12:30am 23.8 ESE 18 20 1018.9 - - - - - - - - -
28/12:20am 23.7 ESE 18 - 1018.8 - - - - - - - - -
28/12:00am 23.7 ESE 17 19 1018.9 - - - - - - - - -
 
Date/Time
EST
Temp

°C
Wind Pressure Rain
since 9am
mm
Weather Cloud Vis
km
Sea
Height
m
Swell
Dir
 
Speed
knots
Gust
knots
hPa Trend Height
m
Period
s
Dir
27/11:30pm 23.7 ESE 17 20 1019.0 - - - - - - - - -
27/11:20pm 23.6 ESE 17 - 1018.9 - - - - - - - - -
27/11:00pm 23.8 ESE 18 21 1019.2 - - - - - - - - -
27/10:30pm 23.8 ESE 17 19 1019.5 - - - - - - - - -
27/10:20pm 23.9 ESE 17 - 1019.4 - - - - - - - - -
27/10:00pm 23.7 SE 16 19 1019.7 - - - - - - - - -
27/09:30pm 23.7 ESE 16 18 1019.7 - - - - - - - - -
27/09:20pm 23.7 ESE 17 - 1019.6 - - - - - - - - -
27/09:00pm 23.8 ESE 17 19 1019.9 - - - - - - - - -
27/08:30pm 23.9 SE 18 21 1020.0 - - - - - - - - -
27/08:20pm 23.8 SE 18 - 1019.9 - - - - - - - - -
27/08:00pm 23.9 SE 17 20 1019.7 - - - - - - - - -
27/07:30pm 23.8 SE 18 20 1019.6 - - - - - - - - -
27/07:20pm 23.7 SSE 15 - 1019.3 - - - - - - - - -
27/07:00pm 22.3 SSE 17 22 1019.3 - - - - - - - - -
27/06:30pm 23.4 ESE 17 22 1019.1 - - - - - - - - -
27/06:20pm 22.7 ESE 20 - 1019.0 - - - - - - - - -
27/06:00pm 23.4 SE 18 22 1019.0 - - - - - - - - -
27/05:30pm 23.7 SE 18 20 1018.7 - - - - - - - - -
27/05:20pm 23.7 SE 17 - 1018.5 - - - - - - - - -
27/05:00pm 23.7 SE 17 20 1018.5 - - - - - - - - -
27/04:30pm 23.8 SE 18 21 1018.3 - - - - - - - - -
27/04:20pm 23.7 SE 18 - 1018.1 - - - - - - - - -
27/04:00pm 23.7 SE 20 23 1018.1 - - - - - - - - -
27/03:30pm 23.9 SE 20 23 1017.8 - - - - - - - - -
27/03:20pm 23.9 SE 20 - 1017.6 - - - - - - - - -
27/03:00pm 23.9 SE 20 23 1017.7 - - - - - - - - -
27/02:30pm 24.1 SE 19 22 1017.7 - - - - - - - - -
27/02:20pm 24.0 SE 18 - 1017.6 - - - - - - - - -
27/02:00pm 24.0 SE 19 22 1017.9 - - - - - - - - -
27/01:30pm 24.1 SE 19 22 1018.0 - - - - - - - - -
27/01:20pm 24.1 SE 19 - 1017.9 - - - - - - - - -
27/01:00pm 24.0 SE 19 21 1018.3 - - - - - - - - -
27/12:30pm 24.1 SE 18 22 1018.8 - - - - - - - - -
27/12:20pm 24.2 SE 18 - 1019.0 - - - - - - - - -
27/12:00pm 24.1 SE 18 21 1019.4 - - - - - - - - -
27/11:30am 24.1 SE 17 20 1019.8 - - - - - - - - -
27/11:20am 24.1 SE 17 - 1019.8 - - - - - - - - -
27/11:00am 24.0 SE 17 20 1020.1 - - - - - - - - -
27/10:30am 24.0 SE 18 20 1020.5 - - - - - - - - -
27/10:20am 24.0 SE 17 - 1020.5 - - - - - - - - -
27/10:00am 24.2 SE 18 20 1020.8 - - - - - - - - -
27/09:30am 24.1 SE 15 18 1020.9 - - - - - - - - -
27/09:20am 24.0 SE 16 - 1020.8 - - - - - - - - -
27/09:00am 24.0 SE 17 19 1020.8 - - - - - - - - -
27/08:30am 23.9 SE 17 19 1020.6 - - - - - - - - -
27/08:20am 23.8 SE 16 - 1020.4 - - - - - - - - -
27/08:00am 23.8 SE 16 18 1020.4 - - - - - - - - -
27/07:30am 23.6 SE 16 20 1020.1 - - - - - - - - -
27/07:20am 23.6 SE 16 - 1019.9 - - - - - - - - -
27/07:00am 23.6 SE 15 19 1020.0 - - - - - - - - -
27/06:30am 23.5 SE 16 18 1019.6 - - - - - - - - -
27/06:20am 23.6 SE 17 - 1019.4 - - - - - - - - -
27/06:00am 23.5 SE 16 19 1019.2 - - - - - - - - -
27/05:30am 23.4 SE 17 20 1018.8 - - - - - - - - -
27/05:20am 23.4 SE 17 - 1018.7 - - - - - - - - -
27/05:00am 23.5 SE 18 21 1018.8 - - - - - - - - -
27/04:30am 23.5 SE 18 21 1018.7 - - - - - - - - -
27/04:20am 23.5 SE 18 - 1018.6 - - - - - - - - -
27/04:00am 23.6 SE 17 21 1018.7 - - - - - - - - -
27/03:30am 23.5 SE 18 21 1018.9 - - - - - - - - -
27/03:20am 23.7 SE 18 - 1018.7 - - - - - - - - -
27/03:00am 23.5 SE 19 21 1018.9 - - - - - - - - -
27/02:30am 23.6 ESE 20 22 1018.8 - - - - - - - - -
27/02:20am 23.6 ESE 20 - 1018.8 - - - - - - - - -
27/02:00am 23.6 ESE 20 23 1018.9 - - - - - - - - -
27/01:30am 23.7 SE 19 22 1019.2 - - - - - - - - -
27/01:20am 23.7 ESE 19 - 1019.4 - - - - - - - - -
27/01:00am 23.8 SE 20 23 1019.8 - - - - - - - - -
27/12:30am 23.6 SE 21 24 1020.1 - - - - - - - - -
27/12:20am 23.5 SE 22 - 1020.0 - - - - - - - - -
27/12:00am 23.4 ESE 22 25 1020.3 - - - - - - - - -
 
Date/Time
EST
Temp

°C
Wind Pressure Rain
since 9am
mm
Weather Cloud Vis
km
Sea
Height
m
Swell
Dir
 
Speed
knots
Gust
knots
hPa Trend Height
m
Period
s
Dir
26/11:30pm 23.5 SE 21 26 1020.5 - - - - - - - - -
26/11:20pm 23.4 SE 22 - 1020.4 - - - - - - - - -
26/11:00pm 23.4 ESE 22 26 1020.6 - - - - - - - - -
26/10:30pm 23.6 ESE 21 24 1020.6 - - - - - - - - -
26/10:20pm 23.6 SE 22 - 1020.8 - - - - - - - - -
26/10:00pm 23.6 ESE 23 26 1020.9 - - - - - - - - -
26/09:30pm 23.7 SE 22 25 1021.1 - - - - - - - - -
26/09:20pm 23.9 SE 21 - 1021.0 - - - - - - - - -
26/09:00pm 23.9 SE 22 25 1021.0 - - - - - - - - -
26/08:30pm 23.6 SE 19 22 1021.1 - - - - - - - - -
26/08:20pm 23.6 SE 19 - 1021.0 - - - - - - - - -
26/08:00pm 23.7 SE 20 23 1021.2 - - - - - - - - -
26/07:30pm 23.4 ESE 21 25 1021.0 - - - - - - - - -
26/07:20pm 23.1 SE 25 26 1020.8 - - - - - - - - -
26/07:00pm 22.7 SSE 20 25 1020.7 - - - - - - - - -
26/06:58pm 22.9 SSE 20 25 1020.7 - - - - - - - - -
26/06:30pm 23.3 SE 19 22 1020.3 - - - - - - - - -
26/06:20pm 23.2 SE 21 25 1020.2 - - - - - - - - -
26/06:00pm 23.2 E 24 27 1020.0 - - - - - - - - -
26/05:30pm 22.0 E 21 24 1019.8 - - - - - - - - -
26/05:28pm 22.0 E 20 24 1019.8 - - - - - - - - -
26/05:20pm 22.4 E 17 - 1019.6 - - - - - - - - -
26/05:00pm 23.6 SE 18 21 1019.6 - - - - - - - - -
26/04:30pm 23.0 E 15 23 1019.6 - - - - - - - - -
26/04:20pm 23.1 SE 16 - 1019.5 - - - - - - - - -
26/04:00pm 23.2 SE 18 21 1019.4 - - - - - - - - -
26/03:30pm 22.8 ESE 18 24 1019.4 - - - - - - - - -
26/03:20pm 22.6 E 19 - 1019.4 - - - - - - - - -
26/03:00pm 23.3 ESE 21 24 1019.7 - - - - - - - - -
26/02:30pm 23.3 ESE 20 22 1019.9 - - - - - - - - -
26/02:20pm 23.2 ESE 19 - 1019.9 - - - - - - - - -
26/02:00pm 23.4 ESE 19 22 1020.2 - - - - - - - - -
26/01:30pm 23.4 ESE 20 23 1020.5 - - - - - - - - -
26/01:20pm 23.2 ESE 21 - 1020.4 - - - - - - - - -
26/01:00pm 23.3 ESE 21 26 1020.8 - - - - - - - - -
26/12:30pm 23.3 ESE 22 26 1021.1 - - - - - - - - -
26/12:20pm 23.4 ESE 23 - 1021.2 - - - - - - - - -
26/12:00pm 23.5 ESE 22 26 1021.4 - - - - - - - - -
26/11:30am 23.6 ESE 21 24 1021.6 - - - - - - - - -
26/11:20am 23.6 ESE 22 - 1021.7 - - - - - - - - -
26/11:00am 23.5 ESE 23 26 1022.0 - - - - - - - - -
26/10:30am 23.8 ESE 20 23 1022.5 - - - - - - - - -
26/10:20am 24.1 SE 19 - 1022.6 - - - - - - - - -
26/10:00am 23.9 SE 19 21 1022.9 - - - - - - - - -
26/09:30am 23.4 ESE 17 19 1023.0 - - - - - - - - -
26/09:20am 23.3 ESE 16 - 1022.9 - - - - - - - - -
26/09:00am 23.1 ESE 17 19 1023.1 - - - - - - - - -
26/08:30am 23.1 ESE 16 19 1023.0 - - - - - - - - -

Other Formats:

Comma delimited format used in spreadsheet applications
http://www.bom.gov.au/fwo/IDQ60701/IDQ60701.94371.axf

JavaScript Object Notation format (JSON) in row-major order
http://www.bom.gov.au/fwo/IDQ60701/IDQ60701.94371.json